Cartwright, Oklahoma
Current Conditions -  °F | °C
As of 7:55 AM on Thursday 23 Oct 2014 (Local Time) from KGYI Reporting Station
Overcast Overcast  
Wind Chill: 60°   Ceiling: 7000
Heat Index: 60°   Visibility: 10mi
Dew Point: 58°   Wind: 6mph
Humidity: 91%   Direction: 110°ESE
Pressure: 30.15"   Gusts: NA
Location:  33.85°N, 96.56°W
Report Text: KGYI 231255Z AUTO 11005KT 10SM OVC070 16/14 A3015 RMK AO2 T01560142
Loading
Personal Weather Stations






























Interactive Weather Map
Tropical Storm Tracking
New forecast layout! Learn more

10-Day Weather Forecast

Advertisements
Track Severe Weather on mobile